Time;durP1;ratioP1;P1;durP2;ratioP2;P2;SDS_P1;SDS_P2;PMS_P1;PMS_P2;Temp;Humidity;BMP_temperature;BMP_pressure;BME280_temperature;BME280_humidity;BME280_pressure;Samples;Min_cycle;Max_cycle;Signal;HPM_P1;HPM_P2
2022/04/27 00:00:26;;;;;;;11.53;9.93;;;;;;;;;;5070337;28;20244;-85
2022/04/27 00:02:53;;;;;;;10.87;9.77;;;;;;;;;;5066668;28;20224;-86
2022/04/27 00:05:21;;;;;;;11.33;10.13;;;;;;;;;;5051230;28;20229;-86
2022/04/27 00:07:48;;;;;;;11.03;9.80;;;;;;;;;;5051928;28;20221;-86
2022/04/27 00:10:15;;;;;;;11.03;8.80;;;;;;;;;;5051825;28;20229;-86
2022/04/27 00:12:44;;;;;;;15.03;8.83;;;;;;;;;;5052677;28;20213;-86
2022/04/27 00:15:11;;;;;;;10.23;9.00;;;;;;;;;;5053422;28;20316;-86
2022/04/27 00:17:38;;;;;;;10.33;9.03;;;;;;;;;;5055890;28;20217;-86
2022/04/27 00:20:06;;;;;;;9.53;8.50;;;;;;;;;;5060482;28;20310;-86
2022/04/27 00:22:33;;;;;;;11.13;9.40;;;;;;;;;;5075426;28;20228;-86
2022/04/27 00:25:01;;;;;;;12.33;9.90;;;;;;;;;;5060315;28;20230;-86
2022/04/27 00:27:28;;;;;;;13.60;9.30;;;;;;;;;;5055154;28;20210;-86
2022/04/27 00:29:56;;;;;;;12.27;9.43;;;;;;;;;;5054100;28;20237;-86
2022/04/27 00:32:24;;;;;;;12.00;8.77;;;;;;;;;;5055117;28;20210;-86
2022/04/27 00:34:51;;;;;;;12.23;9.97;;;;;;;;;;5054756;28;20278;-86
2022/04/27 00:37:18;;;;;;;12.63;10.47;;;;;;;;;;5055231;28;20202;-86
2022/04/27 00:39:45;;;;;;;10.60;9.50;;;;;;;;;;5056435;28;20257;-86
2022/04/27 00:42:13;;;;;;;11.23;9.47;;;;;;;;;;5055477;28;20210;-85
2022/04/27 00:44:43;;;;;;;11.63;9.50;;;;;;;;;;5054137;28;20245;-87
2022/04/27 00:47:12;;;;;;;10.43;9.40;;;;;;;;;;5055199;28;20233;-86
2022/04/27 00:49:41;;;;;;;11.73;9.83;;;;;;;;;;5066408;28;20237;-85
2022/04/27 00:52:09;;;;;;;11.17;9.37;;;;;;;;;;5074437;28;20692;-86
2022/04/27 00:54:36;;;;;;;11.17;9.40;;;;;;;;;;5073934;28;20709;-86
2022/04/27 00:57:03;;;;;;;12.87;9.30;;;;;;;;;;5073457;28;20206;-86
2022/04/27 00:59:31;;;;;;;11.23;9.73;;;;;;;;;;5072810;28;20225;-85
2022/04/27 01:01:58;;;;;;;11.17;9.97;;;;;;;;;;5073843;28;20204;-86
2022/04/27 01:04:26;;;;;;;10.90;9.80;;;;;;;;;;5060319;28;20234;-86
2022/04/27 01:06:53;;;;;;;12.03;10.20;;;;;;;;;;5054034;28;20255;-86
2022/04/27 01:09:21;;;;;;;12.30;10.30;;;;;;;;;;5042085;28;22402;-86
2022/04/27 01:11:48;;;;;;;11.67;9.40;;;;;;;;;;5054410;28;20206;-86
2022/04/27 01:14:15;;;;;;;11.20;9.37;;;;;;;;;;5055138;28;20229;-85
2022/04/27 01:16:42;;;;;;;13.07;9.73;;;;;;;;;;5054432;28;20210;-86
2022/04/27 01:19:09;;;;;;;10.40;9.33;;;;;;;;;;5060789;28;20248;-86
2022/04/27 01:21:38;;;;;;;11.30;9.53;;;;;;;;;;5074035;28;20213;-86
2022/04/27 01:24:06;;;;;;;11.43;9.70;;;;;;;;;;5065724;28;20218;-86
2022/04/27 01:26:34;;;;;;;10.37;9.37;;;;;;;;;;5053905;28;20210;-86
2022/04/27 01:29:01;;;;;;;11.40;8.60;;;;;;;;;;5052925;28;20255;-86
2022/04/27 01:31:28;;;;;;;9.60;8.60;;;;;;;;;;5057130;28;20205;-86
2022/04/27 01:33:56;;;;;;;10.80;9.70;;;;;;;;;;5073435;28;20209;-86
2022/04/27 01:36:23;;;;;;;11.73;9.90;;;;;;;;;;5073151;28;20609;-86
2022/04/27 01:38:56;;;;;;;10.53;9.20;;;;;;;;;;5076744;28;20236;-86
2022/04/27 01:41:23;;;;;;;10.07;8.90;;;;;;;;;;5046074;28;20220;-86
2022/04/27 01:43:50;;;;;;;10.50;8.93;;;;;;;;;;5060490;28;20222;-86
2022/04/27 01:46:18;;;;;;;9.83;8.70;;;;;;;;;;5027496;28;20241;-86
2022/04/27 01:48:45;;;;;;;10.17;8.50;;;;;;;;;;5072421;28;20236;-86
2022/04/27 01:51:13;;;;;;;10.40;8.60;;;;;;;;;;5073048;28;20724;-86
2022/04/27 01:56:40;;;;;;;9.67;8.67;;;;;;;;;;4989225;28;20230;-86
2022/04/27 01:59:09;;;;;;;10.33;9.10;;;;;;;;;;4983027;28;20228;-86
2022/04/27 02:01:37;;;;;;;10.77;9.67;;;;;;;;;;5023630;28;20210;-86
2022/04/27 02:04:05;;;;;;;10.20;9.17;;;;;;;;;;5054844;28;20279;-85
2022/04/27 02:06:35;;;;;;;10.50;8.80;;;;;;;;;;5075482;28;20221;-87
2022/04/27 02:09:02;;;;;;;10.90;8.47;;;;;;;;;;5082802;28;20229;-87
2022/04/27 02:11:29;;;;;;;8.73;7.93;;;;;;;;;;5065959;28;20210;-86
2022/04/27 02:13:58;;;;;;;10.63;8.77;;;;;;;;;;5057784;28;20205;-85
2022/04/27 02:16:25;;;;;;;65.60;10.30;;;;;;;;;;5069702;28;20202;-85
2022/04/27 02:18:52;;;;;;;34.80;9.40;;;;;;;;;;5051755;28;20713;-85
2022/04/27 02:21:20;;;;;;;28.73;8.27;;;;;;;;;;5066595;28;20197;-85
2022/04/27 02:23:49;;;;;;;40.63;8.53;;;;;;;;;;5072641;28;20253;-85
2022/04/27 02:26:16;;;;;;;28.83;9.47;;;;;;;;;;5072392;28;20229;-86
2022/04/27 02:28:43;;;;;;;24.70;7.60;;;;;;;;;;5060173;28;20233;-86
2022/04/27 02:31:14;;;;;;;71.33;9.43;;;;;;;;;;5054314;28;20320;-86
2022/04/27 02:33:42;;;;;;;58.33;8.30;;;;;;;;;;5070703;28;20198;-86
2022/04/27 02:36:11;;;;;;;32.93;8.90;;;;;;;;;;5071831;28;20324;-86
2022/04/27 02:38:38;;;;;;;26.93;8.10;;;;;;;;;;5070448;28;20308;-87
2022/04/27 02:41:05;;;;;;;10.43;7.83;;;;;;;;;;5042599;28;20238;-88
2022/04/27 02:43:32;;;;;;;14.57;9.57;;;;;;;;;;5049726;28;20228;-87
2022/04/27 02:46:02;;;;;;;19.07;9.30;;;;;;;;;;5049077;28;20313;-87
2022/04/27 02:48:32;;;;;;;9.30;8.33;;;;;;;;;;5071785;28;20217;-84
2022/04/27 02:53:49;;;;;;;13.37;8.80;;;;;;;;;;5083534;28;20251;-84
2022/04/27 02:56:17;;;;;;;15.73;8.50;;;;;;;;;;5082041;28;20230;-86
2022/04/27 02:58:44;;;;;;;8.90;8.00;;;;;;;;;;5085313;28;20229;-87
2022/04/27 03:01:12;;;;;;;7.83;7.07;;;;;;;;;;5088142;28;20312;-86
2022/04/27 03:03:43;;;;;;;8.67;7.33;;;;;;;;;;5086489;28;20225;-86
2022/04/27 03:06:12;;;;;;;7.90;6.60;;;;;;;;;;5055688;28;20255;-87
2022/04/27 03:08:43;;;;;;;9.23;7.00;;;;;;;;;;5066924;28;20226;-86
2022/04/27 03:11:27;;;;;;;7.83;7.03;;;;;;;;;;5055047;28;20230;-87
2022/04/27 03:13:54;;;;;;;8.83;7.87;;;;;;;;;;5064113;28;20236;-90
2022/04/27 03:16:33;;;;;;;10.70;8.37;;;;;;;;;;5062678;28;20411;-87
2022/04/27 03:19:01;;;;;;;9.47;8.47;;;;;;;;;;5038281;28;20761;-86
2022/04/27 03:21:29;;;;;;;9.43;8.00;;;;;;;;;;5043867;28;20210;-87
2022/04/27 03:23:59;;;;;;;10.97;8.40;;;;;;;;;;5054799;28;20226;-86
2022/04/27 03:26:29;;;;;;;12.47;8.90;;;;;;;;;;5060169;28;20186;-88
2022/04/27 03:28:56;;;;;;;14.40;9.27;;;;;;;;;;5060873;28;20232;-88
2022/04/27 03:31:24;;;;;;;15.10;10.10;;;;;;;;;;5069059;28;20227;-88
2022/04/27 03:33:55;;;;;;;14.53;9.47;;;;;;;;;;5056575;28;20202;-87
2022/04/27 03:36:24;;;;;;;13.40;9.57;;;;;;;;;;5045569;28;20204;-86
2022/04/27 03:38:54;;;;;;;11.57;9.37;;;;;;;;;;5066065;28;20230;-87
2022/04/27 03:41:42;;;;;;;11.10;9.87;;;;;;;;;;5069406;28;20191;-87
2022/04/27 03:44:12;;;;;;;17.07;10.70;;;;;;;;;;5060452;28;20250;-87
2022/04/27 03:46:43;;;;;;;12.27;9.90;;;;;;;;;;5065468;28;20209;-86
2022/04/27 03:49:19;;;;;;;15.33;11.10;;;;;;;;;;5067213;28;20241;-87
2022/04/27 03:51:47;;;;;;;16.10;11.57;;;;;;;;;;5070279;28;20600;-86
2022/04/27 03:54:14;;;;;;;19.50;11.53;;;;;;;;;;5067164;28;20230;-86
2022/04/27 03:56:58;;;;;;;18.47;12.70;;;;;;;;;;5068983;28;20498;-87
2022/04/27 03:59:26;;;;;;;31.07;15.20;;;;;;;;;;5090409;22;20760;-83
2022/04/27 04:01:53;;;;;;;41.23;17.37;;;;;;;;;;5096321;28;20619;-83
2022/04/27 04:04:20;;;;;;;36.60;17.70;;;;;;;;;;5095923;28;20237;-83
2022/04/27 04:06:48;;;;;;;38.50;16.33;;;;;;;;;;5096089;28;20200;-83
2022/04/27 04:09:15;;;;;;;80.73;20.57;;;;;;;;;;5088152;28;20232;-83
2022/04/27 04:11:42;;;;;;;98.47;22.60;;;;;;;;;;5076151;28;20661;-83
2022/04/27 04:14:09;;;;;;;130.83;24.57;;;;;;;;;;5075167;28;20244;-83
2022/04/27 04:16:36;;;;;;;98.63;25.40;;;;;;;;;;5076081;28;20215;-82
2022/04/27 04:19:03;;;;;;;99.00;23.63;;;;;;;;;;5075198;28;20225;-83
2022/04/27 04:21:30;;;;;;;138.13;26.00;;;;;;;;;;5075841;28;20216;-82
2022/04/27 04:23:59;;;;;;;123.77;24.50;;;;;;;;;;5075215;28;20225;-83
2022/04/27 04:29:10;;;;;;;127.97;25.23;;;;;;;;;;5089150;28;20258;-83
2022/04/27 04:31:37;;;;;;;123.33;23.70;;;;;;;;;;5094167;28;20249;-83
2022/04/27 04:34:05;;;;;;;105.00;22.63;;;;;;;;;;5087588;28;20209;-83
2022/04/27 04:36:32;;;;;;;89.30;20.83;;;;;;;;;;5081222;28;20205;-83
2022/04/27 04:39:00;;;;;;;104.07;22.63;;;;;;;;;;5078900;28;20224;-83
2022/04/27 04:41:27;;;;;;;115.17;25.33;;;;;;;;;;5078975;28;20213;-83
2022/04/27 04:43:54;;;;;;;93.70;23.13;;;;;;;;;;5077396;28;20254;-83
2022/04/27 04:46:21;;;;;;;121.53;23.97;;;;;;;;;;5075574;28;20205;-82
2022/04/27 04:48:48;;;;;;;168.97;25.83;;;;;;;;;;5075320;28;20240;-83
2022/04/27 04:51:15;;;;;;;78.53;21.73;;;;;;;;;;5076014;28;20248;-82
2022/04/27 04:53:42;;;;;;;85.83;21.67;;;;;;;;;;5075985;28;20217;-83
2022/04/27 04:56:11;;;;;;;79.17;21.30;;;;;;;;;;5075760;28;20755;-83
2022/04/27 04:58:38;;;;;;;85.43;22.90;;;;;;;;;;5075282;28;20205;-83
2022/04/27 05:01:05;;;;;;;72.60;22.60;;;;;;;;;;5074666;28;20233;-83
2022/04/27 05:03:36;;;;;;;115.60;22.93;;;;;;;;;;5075624;28;20216;-82
2022/04/27 05:06:03;;;;;;;188.90;26.73;;;;;;;;;;5075090;28;20229;-83
2022/04/27 05:08:30;;;;;;;133.53;27.43;;;;;;;;;;5074588;28;20232;-82
2022/04/27 05:10:57;;;;;;;78.60;20.97;;;;;;;;;;5074675;28;20237;-84
2022/04/27 05:13:25;;;;;;;98.30;21.63;;;;;;;;;;5075389;28;20216;-84
2022/04/27 05:15:52;;;;;;;76.17;22.17;;;;;;;;;;5075202;28;20225;-82
2022/04/27 05:18:19;;;;;;;80.23;21.97;;;;;;;;;;5074956;28;20213;-83
2022/04/27 05:20:46;;;;;;;80.97;20.90;;;;;;;;;;5074712;28;20250;-83
2022/04/27 05:23:13;;;;;;;84.13;21.63;;;;;;;;;;5074805;28;20205;-83
2022/04/27 05:25:41;;;;;;;65.90;23.73;;;;;;;;;;5074985;28;20233;-83
2022/04/27 05:28:08;;;;;;;56.07;19.53;;;;;;;;;;5074782;28;20216;-83
2022/04/27 05:33:23;;;;;;;67.60;19.47;;;;;;;;;;5075970;28;20297;-83
2022/04/27 05:35:50;;;;;;;62.77;19.23;;;;;;;;;;5075090;28;20256;-83
2022/04/27 05:38:17;;;;;;;53.00;18.57;;;;;;;;;;5074899;28;20209;-81
2022/04/27 05:40:44;;;;;;;48.50;18.20;;;;;;;;;;5074266;28;20237;-83
2022/04/27 05:43:12;;;;;;;37.97;16.23;;;;;;;;;;5074845;28;20209;-84
2022/04/27 05:45:41;;;;;;;51.87;16.90;;;;;;;;;;5080394;28;20233;-82
2022/04/27 05:48:08;;;;;;;47.40;18.20;;;;;;;;;;5074673;28;20209;-84
2022/04/27 05:50:36;;;;;;;39.83;17.70;;;;;;;;;;5073778;28;20237;-84
2022/04/27 05:53:04;;;;;;;42.20;17.77;;;;;;;;;;5074828;28;20714;-83
2022/04/27 05:55:31;;;;;;;57.67;19.00;;;;;;;;;;5073793;28;20232;-83
2022/04/27 05:57:59;;;;;;;43.73;18.67;;;;;;;;;;5074236;28;20209;-84
2022/04/27 06:00:26;;;;;;;46.27;22.10;;;;;;;;;;5073646;28;20597;-83
2022/04/27 06:02:55;;;;;;;49.97;18.73;;;;;;;;;;5073926;28;20212;-83
2022/04/27 06:05:22;;;;;;;36.70;19.50;;;;;;;;;;5073220;28;20233;-83
2022/04/27 06:07:49;;;;;;;43.27;19.63;;;;;;;;;;5074080;28;20206;-83
2022/04/27 06:10:16;;;;;;;49.47;20.83;;;;;;;;;;5073360;28;20237;-83
2022/04/27 06:12:47;;;;;;;45.93;20.23;;;;;;;;;;5073047;28;20197;-84
2022/04/27 06:15:14;;;;;;;47.87;20.27;;;;;;;;;;5073852;28;20229;-83
2022/04/27 06:17:41;;;;;;;33.27;18.30;;;;;;;;;;5074008;28;20216;-83
2022/04/27 06:20:11;;;;;;;36.03;19.53;;;;;;;;;;5073646;28;20239;-83
2022/04/27 06:22:38;;;;;;;36.80;19.00;;;;;;;;;;5074063;28;20571;-81
2022/04/27 06:25:05;;;;;;;52.03;20.07;;;;;;;;;;5073224;28;20240;-84
2022/04/27 06:27:32;;;;;;;41.70;18.80;;;;;;;;;;5073879;28;20550;-84
2022/04/27 06:30:00;;;;;;;44.27;20.17;;;;;;;;;;5073363;28;20267;-83
2022/04/27 06:32:30;;;;;;;41.30;20.27;;;;;;;;;;5073479;28;20696;-83
2022/04/27 06:34:57;;;;;;;38.60;20.20;;;;;;;;;;5073004;28;20229;-84
2022/04/27 06:37:26;;;;;;;36.47;19.80;;;;;;;;;;5073591;28;20216;-83
2022/04/27 06:39:53;;;;;;;38.57;20.03;;;;;;;;;;5084100;28;20247;-83
2022/04/27 06:42:20;;;;;;;44.10;20.10;;;;;;;;;;5074460;28;20215;-83
2022/04/27 06:44:48;;;;;;;37.63;19.80;;;;;;;;;;5073595;28;20777;-83
2022/04/27 06:47:15;;;;;;;37.03;18.77;;;;;;;;;;5074308;28;20300;-83
2022/04/27 06:49:42;;;;;;;39.37;19.90;;;;;;;;;;5072664;28;20237;-84
2022/04/27 06:52:09;;;;;;;39.43;19.87;;;;;;;;;;5073532;28;20205;-83
2022/04/27 06:54:38;;;;;;;34.03;19.87;;;;;;;;;;5073485;28;20225;-83
2022/04/27 06:57:05;;;;;;;28.47;19.00;;;;;;;;;;5073510;28;20209;-84
2022/04/27 06:59:32;;;;;;;28.70;17.93;;;;;;;;;;5072609;28;20236;-83
2022/04/27 07:01:59;;;;;;;28.03;18.00;;;;;;;;;;5073237;28;20612;-82
2022/04/27 07:04:26;;;;;;;26.83;17.17;;;;;;;;;;5073583;28;20241;-83
2022/04/27 07:06:54;;;;;;;25.93;16.30;;;;;;;;;;5074904;28;20229;-83
2022/04/27 07:09:22;;;;;;;23.23;15.63;;;;;;;;;;5074720;28;20237;-83
2022/04/27 07:11:51;;;;;;;20.60;14.83;;;;;;;;;;5074889;28;20208;-83
2022/04/27 07:14:18;;;;;;;23.00;16.00;;;;;;;;;;5073622;28;20244;-83
2022/04/27 07:16:45;;;;;;;22.60;15.73;;;;;;;;;;5074109;28;20212;-83
2022/04/27 07:19:13;;;;;;;25.70;16.57;;;;;;;;;;5073258;28;20246;-83
2022/04/27 07:21:40;;;;;;;28.73;19.00;;;;;;;;;;5073953;28;20211;-82
2022/04/27 07:24:07;;;;;;;27.57;19.13;;;;;;;;;;5073815;28;20214;-83
2022/04/27 07:26:35;;;;;;;23.97;17.17;;;;;;;;;;5074196;28;20225;-83
2022/04/27 07:29:03;;;;;;;21.23;15.93;;;;;;;;;;5073499;28;20741;-83
2022/04/27 07:31:32;;;;;;;22.80;17.00;;;;;;;;;;5073857;28;20212;-83
2022/04/27 07:33:59;;;;;;;27.93;15.73;;;;;;;;;;5073239;28;20730;-83
2022/04/27 07:36:26;;;;;;;21.03;16.00;;;;;;;;;;5073149;28;20205;-83
2022/04/27 07:38:53;;;;;;;24.23;17.77;;;;;;;;;;5073418;28;20221;-83
2022/04/27 07:41:20;;;;;;;28.13;19.17;;;;;;;;;;5073820;28;20201;-83
2022/04/27 07:43:47;;;;;;;25.50;18.83;;;;;;;;;;5073880;28;20205;-83
2022/04/27 07:46:16;;;;;;;25.30;16.97;;;;;;;;;;5073511;28;20232;-83
2022/04/27 07:48:43;;;;;;;25.47;16.03;;;;;;;;;;5073693;28;20224;-82
2022/04/27 07:51:10;;;;;;;22.07;16.07;;;;;;;;;;5072457;28;20244;-83
2022/04/27 07:53:37;;;;;;;24.97;16.07;;;;;;;;;;5073683;28;20243;-83
2022/04/27 07:56:05;;;;;;;20.07;15.60;;;;;;;;;;5072663;28;20240;-84
2022/04/27 07:58:32;;;;;;;22.00;16.73;;;;;;;;;;5073200;28;20669;-84
2022/04/27 08:01:00;;;;;;;24.30;16.77;;;;;;;;;;5073005;28;20746;-82
2022/04/27 08:03:29;;;;;;;24.47;17.97;;;;;;;;;;5073305;28;20312;-82
2022/04/27 08:05:56;;;;;;;23.13;17.33;;;;;;;;;;5073163;28;20237;-83
2022/04/27 08:08:23;;;;;;;27.63;17.97;;;;;;;;;;5072648;28;20197;-83
2022/04/27 08:10:50;;;;;;;22.27;16.70;;;;;;;;;;5072881;28;20714;-83
2022/04/27 08:13:17;;;;;;;24.70;17.43;;;;;;;;;;5073497;28;20201;-84
2022/04/27 08:15:45;;;;;;;22.60;16.17;;;;;;;;;;5072639;28;20241;-84
2022/04/27 08:18:12;;;;;;;22.30;16.97;;;;;;;;;;5072808;28;20206;-83
2022/04/27 08:23:29;;;;;;;22.37;16.63;;;;;;;;;;5073178;28;20197;-83
2022/04/27 08:25:56;;;;;;;21.13;17.00;;;;;;;;;;5072270;28;20230;-83
2022/04/27 08:28:23;;;;;;;21.77;16.97;;;;;;;;;;5072462;28;20205;-83
2022/04/27 08:30:51;;;;;;;24.27;17.70;;;;;;;;;;5072384;28;20229;-83
2022/04/27 08:33:19;;;;;;;22.73;16.57;;;;;;;;;;5073107;28;20680;-83
2022/04/27 08:35:48;;;;;;;23.73;18.17;;;;;;;;;;5074509;28;20229;-83
2022/04/27 08:38:15;;;;;;;22.43;17.90;;;;;;;;;;5077178;28;20212;-83
2022/04/27 08:40:43;;;;;;;22.30;16.90;;;;;;;;;;5076563;28;20248;-83
2022/04/27 08:43:10;;;;;;;20.13;16.17;;;;;;;;;;5077303;28;20206;-81
2022/04/27 08:45:38;;;;;;;23.90;16.50;;;;;;;;;;5077918;28;20257;-83
2022/04/27 08:48:06;;;;;;;19.63;15.53;;;;;;;;;;5077892;28;20213;-83
2022/04/27 08:50:33;;;;;;;17.63;15.03;;;;;;;;;;5076249;28;20240;-83
2022/04/27 08:53:01;;;;;;;21.60;17.63;;;;;;;;;;5076819;28;20205;-83
2022/04/27 08:55:28;;;;;;;21.47;17.00;;;;;;;;;;5077425;28;20240;-82
2022/04/27 08:57:56;;;;;;;21.10;16.97;;;;;;;;;;5077824;28;20209;-83
2022/04/27 09:00:23;;;;;;;21.17;16.23;;;;;;;;;;5079406;28;20240;-82
2022/04/27 09:02:54;;;;;;;21.07;15.60;;;;;;;;;;5094121;28;20213;-82
2022/04/27 09:05:22;;;;;;;22.27;15.83;;;;;;;;;;5092495;28;20233;-82
2022/04/27 09:07:50;;;;;;;19.40;15.53;;;;;;;;;;5093978;28;20296;-82
2022/04/27 09:10:21;;;;;;;22.23;16.43;;;;;;;;;;5078376;28;20233;-83
2022/04/27 09:12:49;;;;;;;18.93;15.53;;;;;;;;;;5084997;28;20188;-83
2022/04/27 09:15:16;;;;;;;24.33;16.30;;;;;;;;;;5078061;28;20229;-82
2022/04/27 09:23:24;;;;;;;17.50;13.63;;;;;;;;;;5076406;28;20664;-82
2022/04/27 09:25:55;;;;;;;21.53;14.63;;;;;;;;;;5076434;28;20280;-83
2022/04/27 09:28:24;;;;;;;16.67;14.10;;;;;;;;;;5076151;28;20205;-83
2022/04/27 09:30:51;;;;;;;19.23;15.10;;;;;;;;;;5076083;28;20263;-83
2022/04/27 09:33:31;;;;;;;20.20;15.43;;;;;;;;;;5075987;28;20669;-83
2022/04/27 09:35:58;;;;;;;18.20;14.60;;;;;;;;;;5075484;28;20290;-83
2022/04/27 09:38:26;;;;;;;17.90;13.47;;;;;;;;;;5075018;28;20201;-83
2022/04/27 09:40:56;;;;;;;17.27;14.33;;;;;;;;;;5075345;28;20818;-83
2022/04/27 09:43:39;;;;;;;16.63;13.47;;;;;;;;;;5075583;28;20707;-84
2022/04/27 09:46:15;;;;;;;15.60;12.87;;;;;;;;;;5075067;28;20728;-84
2022/04/27 09:48:42;;;;;;;15.17;12.80;;;;;;;;;;5075191;28;20216;-83
2022/04/27 09:51:13;;;;;;;15.00;13.33;;;;;;;;;;5075691;28;20233;-84
2022/04/27 09:53:42;;;;;;;15.83;13.90;;;;;;;;;;5075752;28;20212;-83
2022/04/27 09:56:11;;;;;;;18.10;12.50;;;;;;;;;;5075430;28;20263;-83
2022/04/27 09:58:46;;;;;;;15.70;13.63;;;;;;;;;;5075355;28;20544;-81
2022/04/27 10:01:14;;;;;;;15.20;13.27;;;;;;;;;;5077356;28;20368;-82
2022/04/27 10:03:42;;;;;;;20.67;13.83;;;;;;;;;;5077031;28;20201;-83
2022/04/27 10:06:09;;;;;;;15.50;13.00;;;;;;;;;;5075106;28;20229;-84
2022/04/27 10:08:38;;;;;;;14.63;12.10;;;;;;;;;;5075144;28;20233;-84
2022/04/27 10:11:06;;;;;;;13.83;12.03;;;;;;;;;;5074561;28;20602;-83
2022/04/27 10:13:35;;;;;;;14.83;11.87;;;;;;;;;;5074753;28;20279;-84
2022/04/27 10:16:02;;;;;;;14.67;12.00;;;;;;;;;;5074162;28;20254;-83
2022/04/27 10:18:31;;;;;;;13.77;11.57;;;;;;;;;;5074256;28;20233;-83
2022/04/27 10:20:58;;;;;;;13.27;10.60;;;;;;;;;;5074180;28;20256;-84
2022/04/27 10:23:28;;;;;;;12.75;10.90;;;;;;;;;;5074918;28;20579;-84
2022/04/27 10:26:11;;;;;;;13.02;10.68;;;;;;;;;;5073929;28;20253;-83
2022/04/27 10:28:42;;;;;;;10.48;9.38;;;;;;;;;;5074384;28;20198;-84
2022/04/27 10:31:09;;;;;;;11.77;9.27;;;;;;;;;;5074435;28;20440;-83
2022/04/27 10:33:50;;;;;;;10.80;9.70;;;;;;;;;;5075541;28;20205;-85
2022/04/27 10:36:24;;;;;;;11.95;10.73;;;;;;;;;;5073846;28;20929;-84
2022/04/27 10:39:09;;;;;;;9.85;8.95;;;;;;;;;;5073668;28;20233;-85
2022/04/27 10:41:36;;;;;;;10.45;9.45;;;;;;;;;;5070673;28;20213;-84
2022/04/27 10:44:04;;;;;;;11.35;9.32;;;;;;;;;;5074064;28;20205;-84
2022/04/27 10:46:38;;;;;;;10.52;9.43;;;;;;;;;;5072491;28;20228;-84
2022/04/27 10:49:22;;;;;;;13.25;10.18;;;;;;;;;;5073058;28;20232;-84
2022/04/27 10:52:01;;;;;;;9.63;8.57;;;;;;;;;;5074201;28;20239;-84
2022/04/27 10:54:29;;;;;;;10.45;8.90;;;;;;;;;;5073290;28;20259;-84
2022/04/27 10:56:57;;;;;;;11.70;9.05;;;;;;;;;;5074184;28;20250;-84
2022/04/27 10:59:42;;;;;;;10.48;8.50;;;;;;;;;;5073009;28;20233;-84
2022/04/27 11:02:32;;;;;;;9.18;8.23;;;;;;;;;;5073622;28;20672;-84
2022/04/27 11:04:59;;;;;;;9.63;8.63;;;;;;;;;;5073691;28;20225;-85
2022/04/27 11:07:33;;;;;;;9.35;8.50;;;;;;;;;;5074144;28;20229;-85
2022/04/27 11:10:14;;;;;;;9.68;8.68;;;;;;;;;;5073672;28;20240;-85
2022/04/27 11:12:43;;;;;;;9.10;8.30;;;;;;;;;;5074054;28;20262;-85
2022/04/27 11:15:11;;;;;;;12.65;9.02;;;;;;;;;;5073628;28;20679;-85
2022/04/27 11:17:41;;;;;;;9.55;8.55;;;;;;;;;;5074178;28;20695;-85
2022/04/27 11:20:23;;;;;;;7.82;7.03;;;;;;;;;;5073722;28;20261;-85
2022/04/27 11:22:50;;;;;;;8.88;8.00;;;;;;;;;;5073781;28;20239;-85
2022/04/27 11:25:23;;;;;;;8.35;7.28;;;;;;;;;;5073226;28;20235;-85
2022/04/27 11:27:50;;;;;;;8.48;7.72;;;;;;;;;;5074109;28;20225;-85
2022/04/27 11:30:18;;;;;;;7.57;6.88;;;;;;;;;;5075518;28;20241;-86
2022/04/27 11:32:48;;;;;;;7.85;7.05;;;;;;;;;;5077848;28;20216;-86
2022/04/27 11:35:15;;;;;;;7.93;7.13;;;;;;;;;;5077727;28;20233;-86
2022/04/27 11:37:42;;;;;;;10.05;7.18;;;;;;;;;;5079293;28;20212;-86
2022/04/27 11:40:13;;;;;;;7.32;6.63;;;;;;;;;;5078376;28;20237;-87
2022/04/27 11:42:44;;;;;;;7.68;6.97;;;;;;;;;;5078489;28;20228;-86
2022/04/27 11:45:12;;;;;;;7.25;6.30;;;;;;;;;;5077680;28;20233;-86
2022/04/27 11:47:39;;;;;;;7.43;6.65;;;;;;;;;;5080077;28;20232;-85
2022/04/27 11:50:09;;;;;;;8.25;7.45;;;;;;;;;;5077161;28;20237;-85
2022/04/27 11:52:39;;;;;;;7.45;6.75;;;;;;;;;;5072571;28;20616;-86
2022/04/27 11:55:11;;;;;;;7.65;6.95;;;;;;;;;;5072107;28;20241;-85
2022/04/27 11:57:39;;;;;;;8.27;5.75;;;;;;;;;;5072769;28;20197;-86
2022/04/27 12:00:07;;;;;;;5.28;4.72;;;;;;;;;;5071774;28;20239;-86
2022/04/27 12:02:34;;;;;;;6.00;5.40;;;;;;;;;;5072466;28;20205;-85
2022/04/27 12:05:03;;;;;;;5.40;4.53;;;;;;;;;;5072338;28;20800;-85
2022/04/27 12:07:37;;;;;;;5.47;4.63;;;;;;;;;;5073226;28;20229;-86
2022/04/27 12:10:05;;;;;;;5.43;4.93;;;;;;;;;;5076705;28;20308;-86
2022/04/27 12:12:32;;;;;;;5.32;4.53;;;;;;;;;;5081027;28;20464;-85
2022/04/27 12:15:05;;;;;;;5.20;4.70;;;;;;;;;;5078248;28;20235;-86
2022/04/27 12:17:42;;;;;;;4.85;4.30;;;;;;;;;;5078015;28;20625;-85
2022/04/27 12:20:11;;;;;;;5.05;4.65;;;;;;;;;;5076519;28;20268;-86
2022/04/27 12:22:52;;;;;;;4.95;4.45;;;;;;;;;;5077423;28;20205;-85
2022/04/27 12:25:19;;;;;;;6.00;4.57;;;;;;;;;;5076359;28;20233;-85
2022/04/27 12:27:47;;;;;;;3.80;3.50;;;;;;;;;;5082549;28;20229;-86
2022/04/27 12:30:19;;;;;;;4.32;3.97;;;;;;;;;;5079592;28;20733;-86
2022/04/27 12:32:46;;;;;;;6.07;4.35;;;;;;;;;;5077859;28;20200;-86
2022/04/27 12:38:08;;;;;;;4.43;3.78;;;;;;;;;;5076660;28;20248;-86
2022/04/27 12:40:36;;;;;;;4.13;3.72;;;;;;;;;;5076234;28;20260;-85
2022/04/27 12:43:04;;;;;;;4.18;3.60;;;;;;;;;;5076921;28;20202;-86
2022/04/27 12:45:32;;;;;;;3.83;3.53;;;;;;;;;;5075731;28;20265;-86
2022/04/27 12:47:59;;;;;;;3.80;3.50;;;;;;;;;;5076152;28;20225;-86
2022/04/27 12:50:26;;;;;;;3.58;3.20;;;;;;;;;;5075487;28;20664;-85
2022/04/27 12:53:06;;;;;;;4.15;3.85;;;;;;;;;;5076203;28;20623;-86
2022/04/27 12:55:35;;;;;;;3.70;3.35;;;;;;;;;;5074886;28;20232;-86
2022/04/27 12:58:03;;;;;;;3.58;3.28;;;;;;;;;;5075463;28;20665;-86
2022/04/27 13:00:39;;;;;;;5.40;3.28;;;;;;;;;;5074589;28;20237;-86
2022/04/27 13:03:08;;;;;;;3.58;3.20;;;;;;;;;;5075808;28;20211;-86
2022/04/27 13:05:35;;;;;;;3.55;3.25;;;;;;;;;;5075003;28;20233;-86
2022/04/27 13:08:02;;;;;;;5.93;3.53;;;;;;;;;;5075559;28;20221;-86
2022/04/27 13:13:17;;;;;;;4.05;3.67;;;;;;;;;;5075866;28;20231;-86
2022/04/27 13:15:45;;;;;;;3.92;3.50;;;;;;;;;;5074917;28;20648;-86
2022/04/27 13:18:12;;;;;;;4.22;3.70;;;;;;;;;;5075411;28;20197;-86
2022/04/27 13:20:39;;;;;;;3.53;3.22;;;;;;;;;;5074135;28;20233;-85
2022/04/27 13:23:07;;;;;;;3.53;3.22;;;;;;;;;;5075441;28;20259;-85
2022/04/27 13:25:34;;;;;;;3.75;3.30;;;;;;;;;;5074979;28;20229;-85
2022/04/27 13:28:01;;;;;;;4.10;3.40;;;;;;;;;;5075455;28;20232;-85
2022/04/27 13:30:29;;;;;;;4.65;3.20;;;;;;;;;;5088953;28;20241;-85
2022/04/27 13:32:56;;;;;;;3.92;3.63;;;;;;;;;;5095759;28;20194;-86
2022/04/27 13:35:24;;;;;;;3.67;3.38;;;;;;;;;;5094892;28;20241;-85
2022/04/27 13:37:51;;;;;;;3.72;3.20;;;;;;;;;;5083373;28;20205;-84
2022/04/27 13:40:18;;;;;;;3.60;3.30;;;;;;;;;;5075517;28;20233;-85
2022/04/27 13:42:45;;;;;;;3.60;3.30;;;;;;;;;;5075731;28;20669;-86
2022/04/27 13:45:14;;;;;;;3.78;3.00;;;;;;;;;;5073508;28;20872;-85
2022/04/27 13:47:43;;;;;;;4.47;2.92;;;;;;;;;;5074400;28;20333;-85
2022/04/27 13:50:10;;;;;;;2.78;2.58;;;;;;;;;;5073429;28;20237;-85
2022/04/27 13:52:38;;;;;;;3.05;2.75;;;;;;;;;;5074492;28;20213;-84
2022/04/27 13:55:06;;;;;;;2.80;2.60;;;;;;;;;;5074268;28;20248;-85
2022/04/27 13:57:33;;;;;;;3.50;3.00;;;;;;;;;;5074296;28;20202;-85
2022/04/27 14:00:00;;;;;;;3.00;2.70;;;;;;;;;;5073708;28;20229;-84
2022/04/27 14:02:27;;;;;;;3.70;3.40;;;;;;;;;;5074710;28;20206;-85
2022/04/27 14:04:55;;;;;;;3.20;3.00;;;;;;;;;;5073889;28;20240;-85
2022/04/27 14:07:22;;;;;;;3.33;3.03;;;;;;;;;;5074445;28;20583;-84
2022/04/27 14:09:49;;;;;;;3.30;3.00;;;;;;;;;;5073223;28;20233;-85
2022/04/27 14:15:01;;;;;;;3.33;3.03;;;;;;;;;;5073808;28;20286;-85
2022/04/27 14:20:15;;;;;;;3.38;2.90;;;;;;;;;;5074199;28;20609;-85
2022/04/27 14:22:42;;;;;;;3.63;3.33;;;;;;;;;;5074460;28;20247;-84
2022/04/27 14:25:11;;;;;;;3.38;2.95;;;;;;;;;;5073643;28;20236;-84
2022/04/27 14:27:38;;;;;;;2.95;2.65;;;;;;;;;;5073832;28;20225;-85
2022/04/27 14:30:05;;;;;;;3.42;3.13;;;;;;;;;;5073444;28;20245;-85
2022/04/27 14:32:33;;;;;;;3.60;3.00;;;;;;;;;;5073275;28;20209;-85
2022/04/27 14:35:00;;;;;;;4.28;2.80;;;;;;;;;;5072867;28;20286;-85
2022/04/27 14:37:29;;;;;;;2.72;2.53;;;;;;;;;;5074077;28;20212;-84
2022/04/27 14:39:56;;;;;;;3.17;2.85;;;;;;;;;;5073473;28;20245;-85
2022/04/27 14:42:23;;;;;;;3.30;2.95;;;;;;;;;;5073848;28;20205;-85
2022/04/27 14:44:50;;;;;;;3.70;2.80;;;;;;;;;;5073141;28;20308;-84
2022/04/27 14:47:17;;;;;;;3.38;2.90;;;;;;;;;;5073706;28;20236;-85
2022/04/27 14:49:45;;;;;;;2.90;2.58;;;;;;;;;;5073149;28;20248;-85
2022/04/27 14:52:13;;;;;;;2.95;2.60;;;;;;;;;;5073684;28;20217;-84
2022/04/27 14:54:41;;;;;;;2.78;2.58;;;;;;;;;;5073262;28;20225;-85
2022/04/27 14:57:09;;;;;;;2.40;2.20;;;;;;;;;;5073198;28;20778;-85
2022/04/27 14:59:36;;;;;;;3.15;2.55;;;;;;;;;;5072502;28;20232;-85
2022/04/27 15:02:04;;;;;;;3.08;2.78;;;;;;;;;;5073352;28;20209;-85
2022/04/27 15:04:32;;;;;;;3.28;3.00;;;;;;;;;;5072420;28;20728;-85
2022/04/27 15:06:59;;;;;;;2.63;2.42;;;;;;;;;;5073538;28;20202;-85